Weather reports worldwide

Advertisment
Feldberg/Schwarzwald, Germany (10908): temperature & dewpoint: 18.06.2018 11:00:00 - 24.06.2018 11:00:00 (CEST)Feldberg/Schwarzwald, Germany (10908): temperature 5cm & temperature -5cm: 18.06.2018 11:00:00 - 24.06.2018 11:00:00 (CEST)Feldberg/Schwarzwald, Germany (10908): temperature -20cm & temperature -100cm: 18.06.2018 11:00:00 - 24.06.2018 11:00:00 (CEST)Feldberg/Schwarzwald, Germany (10908): wind speed & gusts: 18.06.2018 11:00:00 - 24.06.2018 11:00:00 (CEST)Feldberg/Schwarzwald, Germany (10908): wind direction: 18.06.2018 11:00:00 - 24.06.2018 11:00:00 (CEST)Feldberg/Schwarzwald, Germany (10908): visibility: 18.06.2018 11:00:00 - 24.06.2018 11:00:00 (CEST)Feldberg/Schwarzwald, Germany (10908): sunshine duration: 18.06.2018 11:00:00 - 24.06.2018 11:00:00 (CEST)Feldberg/Schwarzwald, Germany (10908): precipitation: 18.06.2018 11:00:00 - 24.06.2018 11:00:00 (CEST)
Date & Time tt [°C] td [°C] tt 5cm [°C] tt -5cm [°C] tt -20cm [°C] tt -100cm [°C] ff [km/h] ff [kn] fx [km/h] fx [kn] dd vv [km] sd [min] rr [mm]
24.06.2018 11:00:00 8,7 6,3 11,6 14,1 12,7 9,8 8 4 11 6 NNW 31 0 0,0
24.06.2018 10:00:00 8,2 5,4 10,2 12,5 12,8 9,8 5 3 11 6 NNW 34 0 0,0
24.06.2018 09:00:00 7,6 4,9 10,3 11,3 13,0 9,8 6 3 12 6 NNE 39 10 0,0
24.06.2018 08:00:00 8,1 4,7 9,1 9,6 13,2 9,8 3 2 10 6 NNE 47 47 0,0
24.06.2018 07:00:00 6,7 4,3 5,6 8,9 13,5 9,8 3 2 7 4 S 38 26 0,0
24.06.2018 06:00:00 6,3 4,2 4,3 8,9 13,9 9,8 5 3 9 5 S 40 0 0,0
24.06.2018 05:00:00 6,7 4,1 3,7 9,3 14,2 9,8 8 4 13 7 SW 41 0 0,0
24.06.2018 04:00:00 6,7 4,0 4,4 9,8 14,5 9,8 8 4 14 7 SW 43 0 0,0
24.06.2018 03:00:00 7,2 3,9 3,3 10,4 14,9 9,8 10 5 13 7 SSW 52 0 0,0
24.06.2018 02:00:00 7,1 4,2 3,5 11,3 15,2 9,8 7 4 14 8 S 41 0 0,0
24.06.2018 01:00:00 6,8 3,6 5,0 12,3 15,5 9,8 10 6 14 7 ENE 52 0 0,0
24.06.2018 00:00:00 7,1 3,7 6,2 12,8 15,8 9,8 13 7 14 8 NE 46 0 0,0
23.06.2018 23:00:00 7,0 4,2 5,4 14,0 16,0 9,8 10 5 13 7 NNE 42 0 0,0
23.06.2018 22:00:00 7,1 4,6 6,1 15,7 16,1 9,8 12 6 18 10 N 34 0 0,0
23.06.2018 21:00:00 7,7 4,4 7,6 17,7 16,1 9,8 14 8 16 9 NNW 40 59 0,0
23.06.2018 20:00:00 8,5 4,1 9,8 19,3 15,9 9,8 13 7 22 12 N 36 60 0,0
23.06.2018 19:00:00 8,6 4,3 9,6 21,9 15,5 9,8 17 9 29 16 N 53 57 0,0
23.06.2018 18:00:00 8,7 4,7 12,4 23,8 14,9 9,8 18 10 33 18 N 70 50 0,0
23.06.2018 17:00:00 8,8 4,4 13,5 25,2 14,2 9,8 20 11 29 16 N 68 52 0,0
23.06.2018 16:00:00 9,3 4,3 15,5 25,3 13,5 9,8 18 10 31 17 N 28 60 0,0
23.06.2018 15:00:00 9,1 4,8 17,1 24,2 12,9 9,8 16 9 28 15 N 19 60 0,0
23.06.2018 14:00:00 8,3 4,1 16,5 22,4 12,3 9,8 15 8 30 16 N 40 60 0,0
23.06.2018 13:00:00 8,1 4,2 15,4 20,0 11,9 9,8 18 10 27 15 N 39 60 0,0
23.06.2018 12:00:00 7,1 3,4 14,1 17,3 11,6 9,8 19 10 29 15 N 69 59 0,0
23.06.2018 11:00:00 7,8 2,9 14,2 14,0 11,6 9,8 12 7 24 13 NNE 68 59 0,0
23.06.2018 10:00:00 5,5 0,5 8,1 11,1 11,7 9,8 14 8 22 12 NNE 61 57 0,0
23.06.2018 09:00:00 5,2 1,9 7,2 8,6 11,9 9,7 7 4 16 9 N 32 57 0,0
23.06.2018 08:00:00 4,6 2,0 5,6 6,8 12,2 9,7 11 6 17 9 ENE 30 60 0,0
23.06.2018 07:00:00 3,5 1,9 3,1 5,8 12,6 9,7 13 7 18 10 E 16 56 0,0
23.06.2018 06:00:00 2,8 1,5 0,6 5,9 12,9 9,7 11 6 17 9 E 16 0 0,0
23.06.2018 05:00:00 2,9 1,7 0,6 6,4 13,3 9,7 15 8 21 11 ESE 16 0 0,0
23.06.2018 04:00:00 2,9 1,8 0,6 7,0 13,7 9,7 15 8 19 10 ENE 16 0 0,0
23.06.2018 03:00:00 3,4 1,5 -0,2 7,7 14,1 9,7 7 4 12 7 NNE 31 0 0,0
23.06.2018 02:00:00 4,1 -0,6 2,0 8,5 14,5 9,7 11 6 17 9 NNW 70 0 0,0
23.06.2018 01:00:00 4,0 0,0 2,0 9,3 14,9 9,7 15 8 22 12 N 64 0 0,0
23.06.2018 00:00:00 3,9 2,3 2,4 10,4 15,2 9,7 16 8 22 12 N 21 0 0,0
22.06.2018 23:00:00 4,0 2,7 2,9 11,6 15,5 9,7 19 10 29 16 N 20 0 0,0
22.06.2018 22:00:00 4,2 2,6 3,4 13,2 15,6 9,7 24 13 35 19 N 27 0 0,0
22.06.2018 21:00:00 4,6 2,3 4,0 15,2 15,7 9,7 23 13 40 22 N 50 4 0,0
22.06.2018 20:00:00 5,4 2,2 6,5 16,9 15,6 9,6 17 9 38 20 NNW 53 6 0,0
22.06.2018 19:00:00 6,4 1,5 9,2 18,5 15,4 9,6 26 14 35 19 N 36 30 0,0
22.06.2018 18:00:00 5,7 1,4 8,2 20,5 15,0 9,6 26 14 53 29 N 70 19 0,0
22.06.2018 17:00:00 6,8 1,5 11,5 22,3 14,5 9,6 31 17 59 32 N 41 51 0,0
22.06.2018 16:00:00 6,4 1,5 11,4 22,9 13,9 9,6 30 16 48 26 N 33 59 0,0
22.06.2018 15:00:00 6,3 1,0 14,1 22,4 13,4 9,6 29 16 46 25 NNE 41 60 0,0
22.06.2018 14:00:00 5,5 1,1 12,8 21,0 12,9 9,6 26 14 36 19 N 27 60 0,0
22.06.2018 13:00:00 5,8 0,1 14,1 19,0 12,7 9,6 20 11 32 17 N 70 60 0,0
22.06.2018 12:00:00 4,8 1,1 11,4 16,0 12,5 9,6 18 10 28 15 NNE 40 60 0,0
22.06.2018 11:00:00 4,3 1,0 10,1 13,0 12,6 9,6 16 9 34 19 N 33 56 0,0
22.06.2018 10:00:00 3,5 -0,1 8,0 10,5 12,8 9,5 23 12 36 20 N 39 60 0,0
22.06.2018 09:00:00 3,4 -0,9 6,2 8,4 13,1 9,5 25 13 37 20 N 70 60 0,0
22.06.2018 08:00:00 3,1 -0,4 2,9 6,9 13,5 9,5 21 12 29 16 N 45 60 0,0
22.06.2018 07:00:00 2,2 0,0 2,0 6,4 13,9 9,5 17 9 21 11 NNE 24 56 0,0
22.06.2018 06:00:00 1,7 0,4 -0,3 6,8 14,3 9,5 18 10 21 12 NNE 19 0 0,0
22.06.2018 05:00:00 2,2 0,7 -0,1 7,6 14,7 9,5 18 10 26 14 NNE 32 0 0,0
22.06.2018 04:00:00 3,1 0,9 1,7 8,4 15,2 9,5 16 9 25 14 N 40 0 0,0
22.06.2018 03:00:00 3,5 1,1 2,4 9,3 15,6 9,5 23 12 31 17 NNW 47 0 0,0
22.06.2018 02:00:00 4,2 2,2 3,4 10,3 16,0 9,5 26 14 36 19 N 49 0 0,0
22.06.2018 01:00:00 4,8 2,1 3,7 11,4 16,4 9,5 29 16 44 24 NW 54 0 0,0
22.06.2018 00:00:00 6,2 2,5 5,5 12,7 16,7 9,4 32 18 50 27 NNW 55 0 0,0
21.06.2018 23:00:00 7,6 4,1 7,2 13,9 17,0 9,4 38 20 52 28 NNW 42 0 0,0
21.06.2018 22:00:00 8,6 6,6 8,2 15,2 17,2 9,4 37 20 55 30 NNW 32 0 0,0
21.06.2018 21:00:00 9,7 7,9 10,0 16,6 17,3 9,4 40 22 51 27 NNW 27 0 0,0
21.06.2018 20:00:00 10,5 10,2 11,1 17,9 17,4 9,4 35 19 54 29 NW 3,2 0 0,0
21.06.2018 19:00:00 11,3 10,8 12,0 19,4 17,3 9,4 33 18 51 27 NNW 8 0 0,0
21.06.2018 18:00:00 12,9 10,1 13,7 21,3 17,1 9,4 29 16 46 25 NW 39 0 0,0
21.06.2018 17:00:00 14,1 9,9 16,5 23,3 16,8 9,4 27 15 44 24 WNW 46 21 0,0
21.06.2018 16:00:00 14,4 9,9 18,0 23,5 16,5 9,4 24 13 40 21 NNW 43 26 0,0
21.06.2018 15:00:00 14,4 10,0 18,2 22,8 16,2 9,4 24 13 37 20 WNW 31 29 0,0
21.06.2018 14:00:00 14,5 11,5 19,7 21,1 16,0 9,4 21 12 35 19 WNW 37 18 0,0
21.06.2018 13:00:00 14,1 12,4 17,4 20,6 15,8 9,4 25 14 38 21 NW 29 16 0,0
21.06.2018 12:00:00 14,4 12,5 16,9 20,1 15,7 9,3 18 10 36 20 NW 28 19 0,0
21.06.2018 11:00:00 15,0 11,5 18,6 19,0 15,6 9,3 29 15 45 24 W 39 32 0,0
21.06.2018 10:00:00 14,6 11,5 18,0 17,7 15,7 9,3 27 14 36 20 W 24 47 0,0
21.06.2018 09:00:00 14,7 11,6 17,0 16,0 15,8 9,3 25 13 37 20 W 27 60 0,0
21.06.2018 08:00:00 14,1 12,7 15,1 14,6 16,1 9,3 20 11 27 14 W 27 57 0,0
21.06.2018 07:00:00 13,7 13,2 13,2 13,9 16,4 9,3 16 8 27 15 W 3,0 41 0,0
21.06.2018 06:00:00 15,3 10,2 12,9 13,8 16,7 9,3 24 13 34 19 W 70 0 0,0
21.06.2018 05:00:00 15,9 9,3 12,7 14,0 17,0 9,3 22 12 29 16 WSW 70 0 0,0
21.06.2018 04:00:00 15,9 10,2 11,7 14,6 17,4 9,3 16 9 18 10 W 62 0 0,0
21.06.2018 03:00:00 16,0 10,2 11,0 15,4 17,7 9,3 10 5 13 7 W 65 0 0,0
21.06.2018 02:00:00 16,0 10,8 12,1 16,3 18,0 9,3 10 5 13 7 WNW 44 0 0,0
21.06.2018 01:00:00 16,3 10,4 11,8 17,4 18,3 9,3 9 5 12 6 W 64 0 0,0
21.06.2018 00:00:00 16,7 11,5 11,8 18,7 18,5 9,3 5 3 8 5 W 55 0 0,0
20.06.2018 23:00:00 17,0 13,5 12,2 20,0 18,6 9,3 4 2 7 4 E 35 0 0,0
20.06.2018 22:00:00 17,2 12,9 14,9 21,6 18,6 9,3 7 4 9 5 NW 43 4 0,0
20.06.2018 21:00:00 17,4 14,6 18,5 23,1 18,6 9,3 8 4 14 7 NNW 28 48 0,0
20.06.2018 20:00:00 17,3 14,6 18,4 24,5 18,4 9,2 12 6 20 11 N 31 20 0,0
20.06.2018 19:00:00 17,8 15,1 19,5 25,6 18,0 9,2 11 6 18 10 N 27 9 0,0
20.06.2018 18:00:00 18,0 14,8 18,6 27,9 17,4 9,2 8 4 14 7 NNW 31 21 0,0
20.06.2018 17:00:00 18,6 14,6 23,3 29,4 16,7 9,2 10 5 18 10 N 44 28 0,0
20.06.2018 16:00:00 19,1 12,6 24,2 30,8 15,9 9,2 13 7 21 11 N 37 53 0,0
20.06.2018 15:00:00 20,1 12,4 26,6 29,4 15,2 9,2 8 4 17 9 NNE 46 60 0,0
20.06.2018 14:00:00 19,0 11,1 27,9 26,9 14,6 9,2 10 6 29 15 E 51 60 0,0
20.06.2018 13:00:00 17,8 8,3 24,5 24,1 14,2 9,2 14 8 31 17 E 33 60 0,0
20.06.2018 12:00:00 16,4 8,2 23,3 21,2 13,9 9,2 19 10 34 18 E 33 60 0,0
20.06.2018 11:00:00 15,9 10,0 21,1 18,4 13,9 9,2 22 12 37 20 E 62 60 0,0
20.06.2018 10:00:00 14,7 10,0 18,9 15,9 13,9 9,2 26 14 40 22 E 46 60 0,0
20.06.2018 09:00:00 14,1 9,8 16,3 13,8 14,0 9,2 31 17 42 23 E 70 60 0,0
20.06.2018 08:00:00 13,2 9,1 13,7 12,5 14,3 9,2 37 20 42 23 E 30 60 0,0
20.06.2018 07:00:00 12,9 8,9 11,9 11,9 14,5 9,2 35 19 43 23 E 39 56 0,0
20.06.2018 06:00:00 12,5 9,2 10,4 11,9 14,8 9,2 31 17 36 19 E 35 0 0,0
20.06.2018 05:00:00 12,1 9,6 10,1 12,2 15,1 9,2 30 16 35 19 E 29 0 0,0
20.06.2018 04:00:00 12,4 9,4 10,2 12,6 15,4 9,2 29 15 34 18 E 25 0 0,0
20.06.2018 03:00:00 12,7 9,5 10,4 13,1 15,7 9,2 27 14 31 17 E 34 0 0,0
20.06.2018 02:00:00 13,6 9,8 10,6 13,7 16,0 9,2 27 15 29 16 ESE 41 0 0,0
20.06.2018 01:00:00 13,4 10,0 10,4 14,6 16,3 9,2 21 12 31 17 E 48 0 0,0
20.06.2018 00:00:00 13,5 11,1 11,4 15,5 16,5 9,2 27 14 33 18 E 48 0 0,0
19.06.2018 23:00:00 13,8 11,4 11,7 16,7 16,6 9,2 21 12 24 13 ENE 55 0 0,0
19.06.2018 22:00:00 13,8 11,6 11,2 18,5 16,6 9,2 10 5 14 8 NE 42 0 0,0
19.06.2018 21:00:00 14,4 11,8 14,4 20,2 16,5 9,2 7 4 11 6 N 45 52 0,0
19.06.2018 20:00:00 15,0 12,1 16,1 21,5 16,3 9,2 9 5 14 8 N 33 52 0,0
19.06.2018 19:00:00 15,3 11,8 15,4 23,9 15,8 9,2 10 6 21 11 N 58 42 0,0
19.06.2018 18:00:00 15,5 11,2 19,5 25,7 15,2 9,1 16 9 22 12 N 44 44 0,0
19.06.2018 17:00:00 16,1 11,0 20,6 26,8 14,5 9,1 14 7 21 11 N 54 58 0,0
19.06.2018 16:00:00 16,2 10,9 22,8 26,4 13,8 9,1 13 7 20 11 N 20 60 0,0
19.06.2018 15:00:00 15,5 10,4 22,3 24,7 13,3 9,1 10 5 21 11 N 30 60 0,0
19.06.2018 14:00:00 14,6 10,9 20,1 22,3 12,8 9,1 16 9 23 12 N 19 53 0,0
19.06.2018 13:00:00 13,9 10,6 19,2 19,9 12,4 9,1 14 7 22 12 NNE 53 28 0,0
19.06.2018 12:00:00 13,7 10,8 18,4 18,2 12,2 9,1 9 5 14 8 NW 56 38 0,0
19.06.2018 11:00:00 12,4 9,1 15,5 16,3 12,1 9,1 9 5 19 11 SSE 67 35 0,0
19.06.2018 10:00:00 11,7 9,0 14,2 13,2 12,1 9,1 7 4 19 10 S 33 20 0,0
19.06.2018 09:00:00 9,9 8,7 10,7 11,7 12,2 9,1 5 3 10 5 W 21 0 0,0
19.06.2018 08:00:00 9,6 8,7 10,5 10,7 12,3 9,1 7 4 12 6 W 10 0 0,0
19.06.2018 07:00:00 9,3 8,8 9,7 9,7 12,6 9,1 7 4 11 6 NW 11 0 0,0
19.06.2018 06:00:00 9,5 8,8 8,9 9,2 12,8 9,1 7 4 12 6 NW 15 0 0,0
19.06.2018 05:00:00 9,4 8,7 8,2 9,2 13,1 9,1 9 5 14 7 NNW 15 0 0,0
19.06.2018 04:00:00 9,1 8,5 7,4 9,6 13,4 9,1 8 4 13 7 N 11 0 0,0
19.06.2018 03:00:00 10,0 8,5 6,9 10,0 13,7 9,1 8 4 13 7 W 21 0 0,0
19.06.2018 02:00:00 9,8 8,7 4,8 10,7 13,9 9,1 3 2 11 6 W 18 0 0,0
19.06.2018 01:00:00 10,3 8,7 6,7 11,4 14,2 9,1 8 4 10 6 WNW 21 0 0,0
19.06.2018 00:00:00 10,3 8,6 7,9 12,2 14,4 9,1 9 5 12 7 NW 21 0 0,0
18.06.2018 23:00:00 10,9 8,5 8,3 13,2 14,5 9,1 11 6 15 8 WNW 26 0 0,0
18.06.2018 22:00:00 10,7 8,8 8,5 14,5 14,6 9,1 8 4 13 7 WNW 25 6 0,0
18.06.2018 21:00:00 10,9 8,7 10,7 16,0 14,5 9,1 12 7 18 10 NNW 26 16 0,0
18.06.2018 20:00:00 11,7 8,5 12,5 17,7 14,3 9,1 13 7 20 11 NNW 53 60 0,0
18.06.2018 19:00:00 11,7 8,4 13,3 19,3 13,9 9,1 14 8 21 11 NNW 40 17 0,0
18.06.2018 18:00:00 11,7 7,8 13,6 21,3 13,5 9,1 15 8 25 13 N 60 30 0,0
18.06.2018 17:00:00 12,6 7,2 18,7 22,1 13,1 9,1 16 9 25 14 N 70 60 0,0
18.06.2018 16:00:00 13,4 7,0 18,5 20,1 12,8 9,1 10 6 24 13 WNW 27 54 0,0
18.06.2018 15:00:00 11,6 7,1 17,0 17,4 12,6 9,1 13 7 23 12 WNW 35 18 0,0
18.06.2018 14:00:00 10,9 7,7 13,5 16,1 12,4 9,1 10 6 20 11 WNW 42 2 0,0
18.06.2018 13:00:00 9,6 8,0 11,6 14,7 12,3 9,1 13 7 20 11 WNW 33 0 0,0
18.06.2018 12:00:00 9,4 8,6 11,4 15,1 12,1 9,1 8 4 23 12 WNW 10 2 0,0
18.06.2018 11:00:00 9,8 8,2 13,3 14,9 12,0 9,1 14 8 24 13 S 33 7 0,0

tt = temperature
td = dewpoint
tt 5cm = temperature 5cm
tt -5cm = temperature -5cm
tt -20cm = temperature -20cm
tt -100cm = temperature -100cm
ff = wind speed
fx = gusts
dd = wind direction
vv = visibility
sd = sunshine duration
rr = precipitation

Next stations